Capitol Logistics 793


YSSY
Kingsford Smith International Airport
Sydney, AU
NZAA
Auckland International Airport
Auckland, NZ

Activity Log

Date Flight Route Aircraft Duration
11/23/2019 CPX793 TESAT L521 LUNBI AA B744 3h 12m
09/21/2019 CPX793 EVONN L521 LUNBI AA B744 2h 41m
09/14/2019 CPX793 EVON L521 LUNBI AA B744 2h 39m

Route Details

Aircraft Information
Primary: Boeing 747-400BCF
Backup: Boeing 777-200LRF
Route Data
Distance: 1167nm
Sched. Duration: 2h 39m
Avg. Duration: 2h 64m (+25m)
Times Flown: 3
Recm'd Route: TESAT L521 LUNBI AA
Planned Altitude: 37,000ft
Origin Wx: YSSY 222000Z 33002KT 9999 FEW012 BKN280 20/17 Q1014 NOSIG
Dest. Wx: NZAA 222000Z AUTO 01006KT 330V030 9999 FEW008/// BKN013/// OVC027/// 17/15 Q1024 BECMG FEW013 SCT024
Notes:

Financial History
Total Freight: 608,641lbs
Average Load: 202,880lbs/flt
Fuel Used: 167,148lbs
Avg. Fuel Used: 55,716lbs/flt
Fuel Expense: $133,718
Avg. Fuel Expense: $44,573
Avg. Fuel Cost: $0.80/lbs
Total Gross Income: $2,188,802
Pilot Pay: $697
Total Expenses: $236,547
Total Revenue: $1,816,425
Average Revenue: $729,600.50